Hlavní strana
METAR-TAF:

METAR-TAF

Letiště :

Fort Chipewyan, Alberta, Kanada

zeměpisná šířka: 58-46N, zeměpisná délka: 111-07W, výška: 232 m

Aktuální stav počasí

Zpráva byla vytvořena před 21 minutami, v 10:00 UTC
Východní vítr 3 kt
Teplota -32°C
Vlhkost vzduchu 67%
Tlak 1018 hPa
Viditelnost: 14.5 km
Skoro jasno ve výšce 24000 ft

METAR: CYPY 221000Z AUTO 09003KT 9SM FEW240 M32/M36 A3005 RMK SLP209

Čas: 03:21 (10:21 UTC)

Předpověď počasí

Zpráva byla vytvořena před 5 hodinami a 57 minutami, v 04:24 UTC
Předpověď platná od 22 v 04 UTC do 22 v 07 UTC
vítr z různých směrů 3 kt
Viditelnost: 10 km
Jasno
ledové krystalky
Dočasný
od 22 v 04 UTC do 22 v 06 UTC
Viditelnost: 1.6 km
Polojasno ve výšce 100 ft
ledové krystalky, kouřmo

TAF: CYPY 220424Z 2204/2207 VRB03KT P6SM IC SKC TEMPO 2204/2206 1SM IC BR SCT001 RMK FCST BASED ON AUTO OBS. NXT FCST WILL BE ISSUED AT 221245Z

Stav a předpovědi počasí z více než 4 000 letišť (zprávy METAR a TAF).

Červené a žluté tečky na mapě představují dostupné meteorologické stanice.

Když kurzor umístíte na tečku, zobrazí se název stanice.

Pak kliknutím zobrazíte stav a předpověď počasí.

Chcete-li změnit mapu, kliknutím na zelené tlačítko se znaménkem +mapu přiblížíte, kliknutím na zelené tlačítko se znaménkem – mapu oddálíte a kliknutím na zelené šipky přejdete na sousední mapy.


METAR-TAF: